Adelaide International Airport
YPAD : now visible

Airfield :











YOU CAN JOIN US ON...

 
LOGIN :

Register | Disclaimer

   EN    FR    IT 

 









Legend :    VFR   Marginal VFR   IFR   Intensive IFR   Very Intensive IFR
Visi :
Ceiling :
>= 8 km
>= 3000ft
5 to 8 km
1000 to 3000 ft
1500m to 5 km
500 to 1000 ft
800 to 1500m
200 to 500 ft
< 800m
< 200 ft
Symbols :   Thunderstorms  Fog  Heavy snow  Heavy precipitations  Wind > 20 kt






- Airport Elevation : 20 ft
- IATA code : ADL


YPAD - Adelaide International

CURRENT METAR :
  • 101300Z 33007KT CAVOK 19/13 Q1013 NOSIG

EXPIRED METARs :
  • 101230Z 34007KT CAVOK 19/14 Q1013 NOSIG
  • 101200Z 35004KT CAVOK 18/14 Q1013 NOSIG
  • 101130Z 35005KT CAVOK 18/14 Q1014 NOSIG
  • 101100Z 35005KT CAVOK 19/13 Q1014 NOSIG
  • 101030Z 31007KT CAVOK 19/13 Q1014 NOSIG

TAF TAF YPAD
Valid from the 10 at 12:00 until the 11 at 18:00 UTC


101114Z 1012/1118 29014KT 9999 -SHRA FEW015 BKN025
FM101600 21018KT 9999 -SHRA FEW015 BKN025
FM102200 21018KT 9999 NSW SCT040
FM110900 15010KT 9999 BKN035 INTER 1014/1017 27015G25KT 3000 SHRA BKN010 INTER 1017/1021 23015G25KT 5000 SHRA BKN012



MET'MAP, your aeronautical weather chart ! - Copyright ORBIFLY December 2007 - Disclaimer

ORBIFLY MET'MAP TEAM :

Programming & Development : Alexandra Zaïnal
Concept & original design : Baudouin d'Aumeries
Assistance for programming : Marc-Olivier Méhu
Technical & hardware support : Manuel Goepfert

Contact : metmap@orbifly.com




SOURCES & CREDITS :

   NOAA       Earth
Advisory